Time;durP1;ratioP1;P1;durP2;ratioP2;P2;SDS_P1;SDS_P2;PMS_P1;PMS_P2;Temp;Humidity;BMP_temperature;BMP_pressure;BME280_temperature;BME280_humidity;BME280_pressure;Samples;Min_cycle;Max_cycle;Signal;HPM_P1;HPM_P2
2022/06/24 00:00:31;;;;;;;0.30;0.30;;;23.60;44.90;;;;;;6269442;28;20417;-68
2022/06/24 00:03:32;;;;;;;0.40;0.30;;;23.60;44.80;;;;;;6268153;28;20025;-67
2022/06/24 00:06:46;;;;;;;0.47;0.30;;;23.60;44.80;;;;;;6269075;28;20430;-68
2022/06/24 00:09:48;;;;;;;0.60;0.20;;;23.50;45.30;;;;;;6269438;28;20028;-68
2022/06/24 00:12:50;;;;;;;0.45;0.30;;;23.40;45.70;;;;;;6268934;28;20703;-68
2022/06/24 00:15:50;;;;;;;0.20;0.20;;;23.30;46.40;;;;;;6269185;28;20079;-68
2022/06/24 00:19:21;;;;;;;0.30;0.30;;;23.30;46.80;;;;;;6269006;28;20029;-68
2022/06/24 00:22:23;;;;;;;0.30;0.20;;;23.20;47.00;;;;;;6260194;28;20042;-68
2022/06/24 00:25:25;;;;;;;0.30;0.30;;;23.20;47.90;;;;;;6266952;28;20029;-68
2022/06/24 00:28:26;;;;;;;0.32;0.32;;;23.20;47.40;;;;;;6268488;28;20028;-68
2022/06/24 00:31:27;;;;;;;0.25;0.25;;;23.10;47.80;;;;;;6268392;28;20032;-68
2022/06/24 00:34:28;;;;;;;0.30;0.28;;;23.10;48.10;;;;;;6268679;28;20020;-68
2022/06/24 00:37:30;;;;;;;0.22;0.20;;;23.10;48.30;;;;;;6267500;28;20033;-68
2022/06/24 00:40:34;;;;;;;0.68;0.43;;;23.10;48.30;;;;;;6268294;28;20048;-67
2022/06/24 00:43:35;;;;;;;0.32;0.20;;;23.10;48.40;;;;;;6268341;28;20098;-68
2022/06/24 00:46:38;;;;;;;0.57;0.30;;;23.10;48.50;;;;;;6268228;28;20493;-68
2022/06/24 00:49:40;;;;;;;0.30;0.20;;;23.00;48.70;;;;;;6268650;28;20424;-67
2022/06/24 00:52:41;;;;;;;0.30;0.30;;;23.00;48.80;;;;;;6268046;28;20363;-68
2022/06/24 00:55:42;;;;;;;0.30;0.30;;;23.00;48.80;;;;;;6268249;28;20560;-67
2022/06/24 00:58:57;;;;;;;0.55;0.30;;;23.00;49.00;;;;;;6266964;28;20029;-68
2022/06/24 01:01:59;;;;;;;0.25;0.25;;;23.00;49.10;;;;;;6268016;28;20573;-68
2022/06/24 01:05:08;;;;;;;0.35;0.35;;;23.00;49.20;;;;;;6268012;28;20438;-68
2022/06/24 01:08:12;;;;;;;0.40;0.40;;;23.00;49.20;;;;;;6266326;28;20486;-68
2022/06/24 01:11:12;;;;;;;0.37;0.30;;;23.00;49.30;;;;;;6266931;28;20028;-68
2022/06/24 01:14:13;;;;;;;0.30;0.30;;;23.00;49.30;;;;;;6268004;28;20032;-68
2022/06/24 01:17:14;;;;;;;0.30;0.30;;;23.00;48.90;;;;;;6266730;28;20047;-67
2022/06/24 01:20:15;;;;;;;0.20;0.10;;;23.00;48.90;;;;;;6268337;28;20390;-68
2022/06/24 01:23:23;;;;;;;0.45;0.32;;;23.00;48.70;;;;;;6267681;28;20040;-68
2022/06/24 01:26:23;;;;;;;0.20;0.20;;;23.00;48.90;;;;;;6268068;28;20421;-68
2022/06/24 01:29:25;;;;;;;0.30;0.30;;;23.00;49.20;;;;;;6267971;28;20025;-68
2022/06/24 01:32:26;;;;;;;0.35;0.30;;;23.00;49.40;;;;;;6267796;28;20333;-68
2022/06/24 01:35:26;;;;;;;0.52;0.30;;;23.00;49.50;;;;;;6267689;28;20032;-68
2022/06/24 01:38:27;;;;;;;0.40;0.30;;;22.90;49.80;;;;;;6267726;28;20075;-68
2022/06/24 01:41:28;;;;;;;0.60;0.40;;;23.00;49.00;;;;;;6267810;28;20032;-68
2022/06/24 01:44:29;;;;;;;0.30;0.30;;;23.00;49.20;;;;;;6266269;28;20048;-68
2022/06/24 01:47:30;;;;;;;0.65;0.30;;;22.90;49.50;;;;;;6267975;28;20017;-68
2022/06/24 01:50:30;;;;;;;0.55;0.30;;;23.00;49.20;;;;;;6267975;28;20021;-68
2022/06/24 01:53:31;;;;;;;0.60;0.35;;;23.00;49.50;;;;;;6267223;28;20071;-68
2022/06/24 01:56:32;;;;;;;0.38;0.38;;;22.90;49.40;;;;;;6267604;28;20025;-67
2022/06/24 01:59:32;;;;;;;0.43;0.32;;;22.90;49.40;;;;;;6266634;28;20029;-68
2022/06/24 02:02:33;;;;;;;0.25;0.25;;;22.90;49.40;;;;;;6267873;28;20025;-68
2022/06/24 02:05:34;;;;;;;0.30;0.30;;;22.90;49.50;;;;;;6267355;28;20025;-68
2022/06/24 02:08:35;;;;;;;0.30;0.30;;;22.90;49.50;;;;;;6267417;28;20096;-67
2022/06/24 02:14:56;;;;;;;0.30;0.30;;;22.90;49.80;;;;;;6267621;28;20049;-68
2022/06/24 02:17:57;;;;;;;0.30;0.30;;;22.90;49.80;;;;;;6267163;28;20055;-68
2022/06/24 02:20:59;;;;;;;2.17;0.40;;;22.90;49.80;;;;;;6268928;28;20025;-68
2022/06/24 02:24:00;;;;;;;0.13;0.13;;;22.90;50.10;;;;;;6271599;28;20025;-68
2022/06/24 02:27:01;;;;;;;0.40;0.40;;;22.90;50.00;;;;;;6271681;28;20029;-68
2022/06/24 02:30:02;;;;;;;0.30;0.30;;;22.90;50.10;;;;;;6271798;28;20545;-68
2022/06/24 02:33:03;;;;;;;0.82;0.40;;;22.90;50.10;;;;;;6271344;28;20021;-68
2022/06/24 02:36:04;;;;;;;0.30;0.30;;;22.90;50.20;;;;;;6271438;28;20037;-68
2022/06/24 02:39:05;;;;;;;0.57;0.30;;;22.90;50.30;;;;;;6271058;28;20488;-68
2022/06/24 02:42:06;;;;;;;0.30;0.30;;;22.80;50.20;;;;;;6271464;28;20210;-68
2022/06/24 02:45:08;;;;;;;0.60;0.50;;;22.90;50.40;;;;;;6270714;28;20134;-67
2022/06/24 02:48:09;;;;;;;0.47;0.40;;;22.90;50.40;;;;;;6271135;28;20021;-68
2022/06/24 02:51:11;;;;;;;0.30;0.30;;;22.90;50.40;;;;;;6271033;28;20025;-68
2022/06/24 02:54:12;;;;;;;0.40;0.30;;;22.90;50.40;;;;;;6269821;28;20474;-68
2022/06/24 02:57:13;;;;;;;0.28;0.28;;;22.90;50.40;;;;;;6270808;28;20079;-68
2022/06/24 03:00:14;;;;;;;0.45;0.45;;;22.90;50.40;;;;;;6271073;28;20048;-68
2022/06/24 03:03:17;;;;;;;0.40;0.40;;;22.90;50.50;;;;;;6269510;28;20032;-68
2022/06/24 03:06:18;;;;;;;0.43;0.38;;;22.80;50.50;;;;;;6270868;28;20028;-68
2022/06/24 03:09:19;;;;;;;0.40;0.40;;;22.80;50.50;;;;;;6270743;28;20021;-68
2022/06/24 03:12:19;;;;;;;0.47;0.40;;;22.80;50.50;;;;;;6269263;28;20405;-67
2022/06/24 03:15:21;;;;;;;0.65;0.50;;;22.80;50.50;;;;;;6270420;28;20029;-68
2022/06/24 03:18:24;;;;;;;0.30;0.30;;;22.80;50.50;;;;;;6270439;28;20029;-68
2022/06/24 03:21:25;;;;;;;0.30;0.30;;;22.80;50.50;;;;;;6270674;28;20048;-68
2022/06/24 03:24:25;;;;;;;0.73;0.40;;;22.80;50.60;;;;;;6270120;28;20028;-68
2022/06/24 03:27:26;;;;;;;0.52;0.38;;;22.80;50.60;;;;;;6270195;28;20363;-68
2022/06/24 03:30:27;;;;;;;0.50;0.40;;;22.80;50.60;;;;;;6268878;28;20140;-68
2022/06/24 03:33:28;;;;;;;0.30;0.30;;;22.80;50.60;;;;;;6269608;28;20017;-67
2022/06/24 03:36:29;;;;;;;0.32;0.32;;;22.80;50.70;;;;;;6270099;28;20473;-68
2022/06/24 03:39:29;;;;;;;0.95;0.50;;;22.80;50.70;;;;;;6269901;28;20123;-68
2022/06/24 03:42:30;;;;;;;0.40;0.40;;;22.80;50.70;;;;;;6269821;28;20029;-68
2022/06/24 03:45:31;;;;;;;0.32;0.32;;;22.80;50.70;;;;;;6269282;28;20108;-68
2022/06/24 03:48:32;;;;;;;0.40;0.40;;;22.80;50.70;;;;;;6269576;28;20025;-68
2022/06/24 03:51:34;;;;;;;0.30;0.30;;;22.80;50.70;;;;;;6268482;28;20587;-68
2022/06/24 03:54:36;;;;;;;0.40;0.40;;;22.80;50.80;;;;;;6269461;28;20028;-68
2022/06/24 03:57:37;;;;;;;0.30;0.30;;;22.80;50.80;;;;;;6269505;28;20025;-68
2022/06/24 04:00:38;;;;;;;0.40;0.30;;;22.80;50.80;;;;;;6269536;28;20024;-68
2022/06/24 04:03:39;;;;;;;0.93;0.43;;;22.80;50.80;;;;;;6269534;28;20021;-68
2022/06/24 04:06:39;;;;;;;0.90;0.43;;;22.80;50.80;;;;;;6268830;28;20086;-68
2022/06/24 04:09:40;;;;;;;0.40;0.40;;;22.80;50.80;;;;;;6269261;28;20025;-68
2022/06/24 04:12:41;;;;;;;0.40;0.40;;;22.80;50.80;;;;;;6269069;28;20039;-68
2022/06/24 04:15:50;;;;;;;0.30;0.30;;;22.80;50.80;;;;;;6269147;28;20028;-68
2022/06/24 04:18:51;;;;;;;0.32;0.30;;;22.80;50.90;;;;;;6268718;28;20612;-67
2022/06/24 04:21:52;;;;;;;0.30;0.30;;;22.80;50.90;;;;;;6269553;28;20033;-68
2022/06/24 04:24:53;;;;;;;0.65;0.55;;;22.80;50.90;;;;;;6268679;28;20025;-68
2022/06/24 04:27:53;;;;;;;0.45;0.30;;;22.80;50.90;;;;;;6269194;28;20055;-68
2022/06/24 04:30:54;;;;;;;0.30;0.30;;;22.80;50.90;;;;;;6268705;28;20053;-68
2022/06/24 04:33:55;;;;;;;0.40;0.40;;;22.80;50.90;;;;;;6268883;28;20017;-67
2022/06/24 04:36:55;;;;;;;0.35;0.35;;;22.80;50.90;;;;;;6268552;28;20020;-68
2022/06/24 04:39:58;;;;;;;0.40;0.30;;;22.80;50.90;;;;;;6268388;28;20486;-68
2022/06/24 04:42:58;;;;;;;0.30;0.30;;;22.80;50.90;;;;;;6266489;28;20037;-68
2022/06/24 04:46:01;;;;;;;0.40;0.40;;;22.80;50.90;;;;;;6268262;28;20054;-68
2022/06/24 04:49:01;;;;;;;0.40;0.32;;;22.80;50.90;;;;;;6268244;28;20108;-68
2022/06/24 04:52:02;;;;;;;0.30;0.30;;;22.80;50.90;;;;;;6268032;28;20023;-68
2022/06/24 04:55:05;;;;;;;0.40;0.40;;;22.80;50.90;;;;;;6266756;28;20024;-68
2022/06/24 04:58:05;;;;;;;0.30;0.30;;;22.80;50.90;;;;;;6268289;28;20022;-68
2022/06/24 05:01:06;;;;;;;0.32;0.32;;;22.70;50.90;;;;;;6267993;28;20035;-68
2022/06/24 05:04:07;;;;;;;0.30;0.30;;;22.80;51.00;;;;;;6267132;28;20034;-68
2022/06/24 05:07:08;;;;;;;0.45;0.40;;;22.80;51.70;;;;;;6266741;28;20017;-68
2022/06/24 05:10:09;;;;;;;0.22;0.22;;;22.80;51.00;;;;;;6268221;28;20025;-68
2022/06/24 05:13:10;;;;;;;0.63;0.40;;;22.80;51.00;;;;;;6268136;28;20675;-68
2022/06/24 05:16:10;;;;;;;0.47;0.40;;;22.80;51.00;;;;;;6266808;28;20032;-68
2022/06/24 05:19:11;;;;;;;0.50;0.50;;;22.70;51.00;;;;;;6268062;28;20096;-68
2022/06/24 05:22:12;;;;;;;0.30;0.30;;;22.80;51.00;;;;;;6267843;28;20374;-68
2022/06/24 05:25:13;;;;;;;0.30;0.30;;;22.80;51.00;;;;;;6267774;28;20065;-68
2022/06/24 05:28:14;;;;;;;0.30;0.30;;;22.80;51.00;;;;;;6268128;28;20090;-68
2022/06/24 05:31:14;;;;;;;0.43;0.30;;;22.80;51.10;;;;;;6267707;28;20017;-68
2022/06/24 05:34:15;;;;;;;0.65;0.32;;;22.70;51.00;;;;;;6267545;28;20112;-68
2022/06/24 05:37:16;;;;;;;0.30;0.30;;;22.80;51.10;;;;;;6268099;28;20029;-68
2022/06/24 05:40:16;;;;;;;0.65;0.55;;;22.70;51.00;;;;;;6267738;28;20037;-68
2022/06/24 05:43:20;;;;;;;0.40;0.40;;;22.70;51.00;;;;;;6267959;28;20573;-68
2022/06/24 05:46:21;;;;;;;0.40;0.30;;;22.70;51.10;;;;;;6266117;28;20123;-68
2022/06/24 05:49:22;;;;;;;0.30;0.30;;;22.70;51.10;;;;;;6267821;28;20031;-68
2022/06/24 05:55:42;;;;;;;0.75;0.50;;;22.70;51.10;;;;;;6245616;28;20033;-68
2022/06/24 05:58:43;;;;;;;0.95;0.43;;;22.70;51.10;;;;;;6263159;28;20486;-68
2022/06/24 06:01:44;;;;;;;0.30;0.30;;;22.70;51.10;;;;;;6250684;28;20024;-68
2022/06/24 06:04:44;;;;;;;0.30;0.30;;;22.70;51.10;;;;;;6249847;28;20022;-68
2022/06/24 06:07:45;;;;;;;0.40;0.40;;;22.70;51.10;;;;;;6249650;28;20053;-67
2022/06/24 06:10:46;;;;;;;0.30;0.30;;;22.70;51.10;;;;;;6249449;28;20442;-67
2022/06/24 06:13:48;;;;;;;0.45;0.20;;;22.70;51.10;;;;;;6249314;28;20025;-68
2022/06/24 06:16:49;;;;;;;0.30;0.30;;;22.70;51.20;;;;;;6258996;28;20028;-67
2022/06/24 06:19:50;;;;;;;0.60;0.50;;;22.70;51.20;;;;;;6268131;28;20052;-66
2022/06/24 06:22:51;;;;;;;0.40;0.30;;;22.70;51.30;;;;;;6271173;28;20025;-66
2022/06/24 06:25:52;;;;;;;0.30;0.30;;;22.70;51.20;;;;;;6272048;28;20021;-67
2022/06/24 06:28:53;;;;;;;0.40;0.40;;;22.80;51.30;;;;;;6260416;28;20024;-66
2022/06/24 06:31:55;;;;;;;0.43;0.30;;;22.70;51.20;;;;;;6260490;28;20075;-66
2022/06/24 06:34:56;;;;;;;0.50;0.38;;;22.70;51.30;;;;;;6283331;28;20029;-66
2022/06/24 06:37:57;;;;;;;0.40;0.38;;;22.70;51.30;;;;;;6270772;28;20040;-66
2022/06/24 06:40:58;;;;;;;0.30;0.30;;;22.70;51.30;;;;;;6271490;28;20013;-67
2022/06/24 06:43:59;;;;;;;0.28;0.28;;;22.70;51.30;;;;;;6271144;28;20599;-66
2022/06/24 06:46:59;;;;;;;0.40;0.40;;;22.70;51.30;;;;;;6273008;28;20056;-67
2022/06/24 06:50:00;;;;;;;0.30;0.30;;;22.70;51.40;;;;;;6273329;28;20049;-67
2022/06/24 06:53:02;;;;;;;0.35;0.35;;;22.70;51.30;;;;;;6271998;28;20040;-67
2022/06/24 06:56:03;;;;;;;0.30;0.30;;;22.80;51.40;;;;;;6272959;28;20028;-68
2022/06/24 06:59:03;;;;;;;0.40;0.40;;;22.70;51.30;;;;;;6273492;28;20060;-67
2022/06/24 07:02:04;;;;;;;0.30;0.22;;;22.70;51.40;;;;;;6271792;28;20021;-67
2022/06/24 07:05:06;;;;;;;0.98;0.47;;;22.70;51.40;;;;;;6273143;28;20071;-67
2022/06/24 07:08:07;;;;;;;0.63;0.40;;;22.70;51.40;;;;;;6271750;28;20027;-67
2022/06/24 07:11:07;;;;;;;0.60;0.50;;;22.70;51.40;;;;;;6272669;28;20029;-67
2022/06/24 07:14:08;;;;;;;0.40;0.40;;;22.70;51.40;;;;;;6272243;28;20021;-67
2022/06/24 07:17:09;;;;;;;0.35;0.30;;;22.70;51.50;;;;;;6272686;28;20029;-67
2022/06/24 07:20:11;;;;;;;0.40;0.40;;;22.70;51.50;;;;;;6271288;28;20371;-67
2022/06/24 07:23:11;;;;;;;0.30;0.30;;;22.70;52.10;;;;;;6272721;28;20028;-67
2022/06/24 07:26:12;;;;;;;0.40;0.40;;;22.70;51.50;;;;;;6272079;28;20389;-67
2022/06/24 07:29:13;;;;;;;1.02;0.40;;;22.70;51.50;;;;;;6272699;28;20025;-67
2022/06/24 07:32:14;;;;;;;0.30;0.30;;;22.70;51.50;;;;;;6272008;28;20098;-67
2022/06/24 07:35:14;;;;;;;0.30;0.30;;;22.70;51.50;;;;;;6272442;28;20051;-67
2022/06/24 07:38:15;;;;;;;0.30;0.30;;;22.70;51.50;;;;;;6272252;28;20029;-67
2022/06/24 07:41:16;;;;;;;0.30;0.30;;;22.70;51.50;;;;;;6272340;28;20119;-67
2022/06/24 07:44:17;;;;;;;0.40;0.40;;;22.70;51.50;;;;;;6272030;28;20417;-67
2022/06/24 07:47:17;;;;;;;0.45;0.40;;;22.70;51.50;;;;;;6271867;28;20024;-67
2022/06/24 07:50:18;;;;;;;0.38;0.38;;;22.70;51.50;;;;;;6271676;28;20118;-66
2022/06/24 07:53:19;;;;;;;0.40;0.40;;;22.70;51.60;;;;;;6272179;28;20025;-67
2022/06/24 07:59:39;;;;;;;0.80;0.38;;;22.70;51.50;;;;;;6272288;28;20394;-67
2022/06/24 08:02:40;;;;;;;0.50;0.30;;;22.70;51.50;;;;;;6270332;28;20118;-67
2022/06/24 08:05:41;;;;;;;0.30;0.30;;;22.70;51.60;;;;;;6271378;28;20021;-67
2022/06/24 08:08:42;;;;;;;0.38;0.30;;;22.70;51.60;;;;;;6271534;28;20386;-67
2022/06/24 08:11:43;;;;;;;0.30;0.30;;;22.70;51.60;;;;;;6271330;28;20389;-66
2022/06/24 08:14:43;;;;;;;1.27;0.40;;;22.70;51.60;;;;;;6271279;28;20466;-67
2022/06/24 08:17:44;;;;;;;0.65;0.30;;;22.70;51.60;;;;;;6269756;28;20025;-67
2022/06/24 08:20:45;;;;;;;0.30;0.30;;;22.70;51.60;;;;;;6269897;28;20662;-67
2022/06/24 08:23:45;;;;;;;0.20;0.20;;;22.70;51.70;;;;;;6270860;28;20033;-67
2022/06/24 08:26:46;;;;;;;0.45;0.45;;;22.70;51.60;;;;;;6270942;28;20029;-67
2022/06/24 08:29:47;;;;;;;0.30;0.30;;;22.70;51.60;;;;;;6270782;28;20036;-67
2022/06/24 08:32:48;;;;;;;0.45;0.40;;;22.70;51.60;;;;;;6270797;28;20044;-67
2022/06/24 08:35:49;;;;;;;0.22;0.22;;;22.70;51.60;;;;;;6269138;28;20031;-67
2022/06/24 08:38:50;;;;;;;0.35;0.30;;;22.70;51.60;;;;;;6270823;28;20025;-67
2022/06/24 08:41:56;;;;;;;0.40;0.40;;;22.70;51.60;;;;;;6270392;28;20040;-67
2022/06/24 08:44:59;;;;;;;0.82;0.30;;;22.70;51.60;;;;;;6270290;28;20513;-67
2022/06/24 08:48:00;;;;;;;0.40;0.40;;;22.70;51.70;;;;;;6269305;28;20029;-67
2022/06/24 08:51:06;;;;;;;0.98;0.40;;;22.60;51.60;;;;;;6269148;28;20048;-67
2022/06/24 08:54:09;;;;;;;0.67;0.67;;;22.70;50.10;;;;;;6270225;28;20104;-67
2022/06/24 08:57:11;;;;;;;0.30;0.30;;;22.70;49.40;;;;;;6270127;28;20078;-67
2022/06/24 09:00:13;;;;;;;0.73;0.50;;;22.80;49.10;;;;;;6268967;28;20029;-67
2022/06/24 09:03:14;;;;;;;0.65;0.50;;;22.90;48.70;;;;;;6270121;28;20035;-66
2022/06/24 09:06:16;;;;;;;0.90;0.50;;;23.00;48.40;;;;;;6268574;28;20482;-67
2022/06/24 09:09:26;;;;;;;0.82;0.50;;;23.00;48.10;;;;;;6268815;28;20048;-67
2022/06/24 09:12:29;;;;;;;0.45;0.40;;;23.10;47.90;;;;;;6270154;28;20032;-67
2022/06/24 09:15:30;;;;;;;0.65;0.60;;;23.20;47.80;;;;;;6268527;28;20052;-67
2022/06/24 09:18:30;;;;;;;0.73;0.40;;;23.20;47.60;;;;;;6270034;28;20397;-66
2022/06/24 09:21:39;;;;;;;0.65;0.63;;;23.20;47.50;;;;;;6269997;28;20036;-66
2022/06/24 09:24:51;;;;;;;0.60;0.60;;;23.30;47.40;;;;;;6268195;28;20025;-67
2022/06/24 09:27:51;;;;;;;0.70;0.40;;;23.30;47.30;;;;;;6269878;28;20569;-67
2022/06/24 09:31:12;;;;;;;1.52;0.40;;;23.30;47.20;;;;;;6271683;28;20021;-66
2022/06/24 09:34:15;;;;;;;1.27;0.50;;;23.30;47.20;;;;;;6274740;28;20033;-66
2022/06/24 09:37:34;;;;;;;0.47;0.40;;;23.30;47.10;;;;;;6274635;28;20111;-67
2022/06/24 09:40:35;;;;;;;0.47;0.40;;;23.30;47.00;;;;;;6274513;28;20075;-67
2022/06/24 09:43:35;;;;;;;1.00;0.50;;;23.30;46.90;;;;;;6274148;28;20049;-67
2022/06/24 09:46:36;;;;;;;0.68;0.47;;;23.30;46.80;;;;;;6272917;28;20053;-66
2022/06/24 09:49:38;;;;;;;0.40;0.40;;;23.30;46.80;;;;;;6274432;28;20535;-66
2022/06/24 09:52:39;;;;;;;0.50;0.50;;;23.30;46.80;;;;;;6274025;28;20081;-67
2022/06/24 09:55:40;;;;;;;0.68;0.40;;;23.30;46.70;;;;;;6274124;28;20039;-67
2022/06/24 10:00:40;;;;;;;0.85;0.50;;;23.30;46.60;;;;;;6274181;28;20072;-67
2022/06/24 10:02:13;;;;;;;0.65;0.55;;;23.40;46.50;;;;;;6273926;28;20463;-67
2022/06/24 10:05:17;;;;;;;0.40;0.40;;;23.40;46.50;;;;;;6273936;28;20025;-66
2022/06/24 10:08:20;;;;;;;0.68;0.30;;;23.40;46.50;;;;;;6274024;28;20054;-67
2022/06/24 10:11:22;;;;;;;0.30;0.30;;;23.40;46.40;;;;;;6274008;28;20025;-67
2022/06/24 10:14:27;;;;;;;0.60;0.50;;;23.40;46.30;;;;;;6273661;28;20025;-66
2022/06/24 10:17:30;;;;;;;0.35;0.35;;;23.40;46.40;;;;;;6273706;28;20079;-67
2022/06/24 10:20:31;;;;;;;0.30;0.30;;;23.40;46.40;;;;;;6272422;28;20555;-67
2022/06/24 10:23:39;;;;;;;0.75;0.50;;;23.40;46.20;;;;;;6273605;28;20029;-67
2022/06/24 10:26:42;;;;;;;0.35;0.22;;;23.40;46.20;;;;;;6273569;28;20551;-67
2022/06/24 10:29:44;;;;;;;0.95;0.40;;;23.40;46.10;;;;;;6273358;28;20021;-67
2022/06/24 10:33:13;;;;;;;0.40;0.30;;;23.40;46.10;;;;;;6273560;28;20029;-67
2022/06/24 10:36:31;;;;;;;0.45;0.43;;;23.40;46.00;;;;;;6273727;28;20048;-67
2022/06/24 10:40:02;;;;;;;0.75;0.40;;;23.40;46.00;;;;;;6273200;28;20478;-67
2022/06/24 10:43:06;;;;;;;0.35;0.35;;;23.40;46.00;;;;;;6271951;28;20037;-67
2022/06/24 10:46:12;;;;;;;0.60;0.40;;;23.40;45.90;;;;;;6272978;28;20027;-67
2022/06/24 10:49:13;;;;;;;0.20;0.20;;;23.50;46.00;;;;;;6273196;28;20108;-67
2022/06/24 10:52:36;;;;;;;0.70;0.40;;;23.40;45.90;;;;;;6273047;28;20027;-67
2022/06/24 10:55:37;;;;;;;0.47;0.47;;;23.40;45.70;;;;;;6246864;28;20037;-67
2022/06/24 10:58:38;;;;;;;0.30;0.30;;;23.40;46.00;;;;;;6256009;28;20033;-67
2022/06/24 11:01:44;;;;;;;0.30;0.30;;;23.40;45.80;;;;;;6272863;28;20366;-67
2022/06/24 11:04:45;;;;;;;0.40;0.40;;;23.40;45.70;;;;;;6272207;28;20045;-67
2022/06/24 11:07:48;;;;;;;0.43;0.40;;;23.40;45.70;;;;;;6272506;28;20074;-67
2022/06/24 11:10:50;;;;;;;0.70;0.40;;;23.40;45.60;;;;;;6270841;28;20021;-67
2022/06/24 11:13:51;;;;;;;0.20;0.20;;;23.50;45.60;;;;;;6272446;28;20021;-66
2022/06/24 11:16:52;;;;;;;0.45;0.40;;;23.50;46.40;;;;;;6271227;28;20112;-67
2022/06/24 11:19:53;;;;;;;0.20;0.20;;;23.40;45.60;;;;;;6271260;28;20044;-67
2022/06/24 11:22:54;;;;;;;0.30;0.30;;;23.50;45.60;;;;;;6272249;28;20025;-67
2022/06/24 11:26:16;;;;;;;0.30;0.20;;;23.50;45.50;;;;;;6270881;28;20421;-67
2022/06/24 11:29:16;;;;;;;0.28;0.28;;;23.50;45.60;;;;;;6271167;28;20025;-67
2022/06/24 11:32:18;;;;;;;0.30;0.30;;;23.50;45.60;;;;;;6270814;28;20036;-68
2022/06/24 11:35:19;;;;;;;0.25;0.20;;;23.50;45.50;;;;;;6271965;28;20053;-67
2022/06/24 11:38:22;;;;;;;0.40;0.30;;;23.50;45.40;;;;;;6272165;28;20033;-66
2022/06/24 11:41:34;;;;;;;0.20;0.20;;;23.50;45.50;;;;;;6269984;28;20482;-66
2022/06/24 11:44:39;;;;;;;0.45;0.35;;;23.50;45.50;;;;;;6269655;28;20052;-66
2022/06/24 11:47:39;;;;;;;0.30;0.30;;;23.50;45.40;;;;;;6269957;28;20021;-66
2022/06/24 11:50:40;;;;;;;0.40;0.32;;;23.50;45.40;;;;;;6271819;28;20358;-65
2022/06/24 11:53:43;;;;;;;0.28;0.20;;;23.50;45.40;;;;;;6269512;28;20029;-66
2022/06/24 11:56:44;;;;;;;0.55;0.38;;;23.50;45.40;;;;;;6271697;28;20078;-70
2022/06/24 11:59:45;;;;;;;0.40;0.30;;;23.50;45.40;;;;;;6287110;28;20146;-69
2022/06/24 12:02:46;;;;;;;0.15;0.15;;;23.50;45.20;;;;;;6279177;28;20100;-66
2022/06/24 12:05:47;;;;;;;0.35;0.28;;;23.50;45.10;;;;;;6268334;28;20029;-66
2022/06/24 12:08:49;;;;;;;0.20;0.20;;;23.50;45.90;;;;;;6268586;28;20128;-66
2022/06/24 12:11:50;;;;;;;0.30;0.30;;;23.50;45.30;;;;;;6243579;28;20022;-66
2022/06/24 12:14:58;;;;;;;0.40;0.30;;;23.50;45.10;;;;;;6258931;28;20032;-66
2022/06/24 12:17:59;;;;;;;0.55;0.40;;;23.50;45.20;;;;;;6268163;28;20043;-66
2022/06/24 12:21:10;;;;;;;0.38;0.30;;;23.50;45.10;;;;;;6268236;28;20513;-66
2022/06/24 12:24:24;;;;;;;1.85;0.40;;;23.50;45.30;;;;;;6267704;28;20021;-66
2022/06/24 12:27:36;;;;;;;0.35;0.30;;;23.50;45.10;;;;;;6268032;28;20052;-66
2022/06/24 12:30:37;;;;;;;0.40;0.32;;;23.50;45.10;;;;;;6268139;28;20028;-68
2022/06/24 12:33:44;;;;;;;0.30;0.30;;;23.50;45.10;;;;;;6268453;28;20407;-67
2022/06/24 12:36:45;;;;;;;0.30;0.30;;;23.50;45.10;;;;;;6264038;28;20037;-66
2022/06/24 12:39:47;;;;;;;0.30;0.30;;;23.50;45.10;;;;;;6266812;28;20592;-66
2022/06/24 12:43:06;;;;;;;4.20;0.30;;;23.50;45.10;;;;;;6268076;28;20037;-66
2022/06/24 12:46:07;;;;;;;0.40;0.30;;;23.50;45.00;;;;;;6267912;28;20056;-67
2022/06/24 12:52:38;;;;;;;0.75;0.30;;;23.50;45.00;;;;;;6266856;28;20029;-66
2022/06/24 12:55:39;;;;;;;0.30;0.30;;;23.50;45.00;;;;;;6268239;28;20587;-67
2022/06/24 12:58:39;;;;;;;0.40;0.40;;;23.50;45.00;;;;;;6268589;28;20025;-66
2022/06/24 13:01:45;;;;;;;0.65;0.30;;;23.50;44.90;;;;;;6268315;28;20032;-67
2022/06/24 13:04:46;;;;;;;0.80;0.40;;;23.50;44.90;;;;;;6266440;28;20075;-67
2022/06/24 13:07:48;;;;;;;0.40;0.40;;;23.50;44.80;;;;;;6267934;28;20733;-67
2022/06/24 13:10:48;;;;;;;0.30;0.28;;;23.50;44.80;;;;;;6267689;28;20045;-66
2022/06/24 13:13:49;;;;;;;0.52;0.30;;;23.60;44.80;;;;;;6266686;28;20025;-67
2022/06/24 13:16:50;;;;;;;0.47;0.40;;;23.50;44.70;;;;;;6268098;28;20104;-66
2022/06/24 13:19:51;;;;;;;0.30;0.30;;;23.50;44.70;;;;;;6268005;28;20025;-67
2022/06/24 13:22:51;;;;;;;0.30;0.30;;;23.50;44.70;;;;;;6266059;28;20029;-67
2022/06/24 13:25:52;;;;;;;3.00;0.43;;;23.50;44.80;;;;;;6266764;28;20098;-67
2022/06/24 13:28:53;;;;;;;0.30;0.30;;;23.50;44.70;;;;;;6260480;28;20100;-66
2022/06/24 13:31:53;;;;;;;0.35;0.30;;;23.40;45.10;;;;;;6265333;28;20386;-67
2022/06/24 13:34:54;;;;;;;0.65;0.40;;;23.30;46.20;;;;;;6259162;28;20039;-66
2022/06/24 13:37:54;;;;;;;0.50;0.40;;;23.20;46.80;;;;;;6246989;28;20474;-69
2022/06/24 13:40:55;;;;;;;0.30;0.30;;;23.10;46.90;;;;;;6264020;28;20425;-67
2022/06/24 13:43:56;;;;;;;0.30;0.30;;;23.10;47.10;;;;;;6259078;28;20055;-69
2022/06/24 13:46:57;;;;;;;0.43;0.32;;;23.10;47.60;;;;;;6265330;28;20394;-70
2022/06/24 13:50:01;;;;;;;0.40;0.40;;;23.00;47.70;;;;;;6264282;28;20028;-70
2022/06/24 13:53:02;;;;;;;0.35;0.35;;;23.00;47.90;;;;;;6265308;28;20025;-70
2022/06/24 13:56:03;;;;;;;0.40;0.40;;;23.00;48.00;;;;;;6265319;28;20025;-69
2022/06/24 13:59:05;;;;;;;1.85;0.38;;;23.00;48.00;;;;;;6264978;28;20036;-69
2022/06/24 14:02:06;;;;;;;0.68;0.38;;;23.00;48.20;;;;;;6264136;28;20087;-70
2022/06/24 14:05:07;;;;;;;0.30;0.30;;;23.00;48.30;;;;;;6264496;28;20029;-70
2022/06/24 14:08:08;;;;;;;0.50;0.38;;;23.00;48.40;;;;;;6254872;28;20029;-70
2022/06/24 14:11:10;;;;;;;0.75;0.30;;;22.90;48.50;;;;;;6265257;28;20021;-70
2022/06/24 14:14:12;;;;;;;2.72;0.30;;;22.90;48.50;;;;;;6265182;28;20023;-67
2022/06/24 14:17:13;;;;;;;0.35;0.30;;;22.90;48.60;;;;;;6268357;28;20079;-67
2022/06/24 14:20:14;;;;;;;1.00;0.40;;;22.90;48.60;;;;;;6268653;28;20033;-68
2022/06/24 14:26:34;;;;;;;0.50;0.40;;;22.90;48.60;;;;;;6269338;28;20044;-67
2022/06/24 14:29:37;;;;;;;0.75;0.47;;;22.90;48.60;;;;;;6268991;28;20606;-68
2022/06/24 14:32:37;;;;;;;0.57;0.40;;;22.90;48.50;;;;;;6268293;28;20485;-67
2022/06/24 14:35:39;;;;;;;0.30;0.30;;;22.90;48.70;;;;;;6268003;28;20025;-68
2022/06/24 14:42:00;;;;;;;0.45;0.40;;;22.90;48.80;;;;;;6269464;28;20576;-70
2022/06/24 14:45:01;;;;;;;1.05;0.45;;;22.90;49.10;;;;;;6267894;28;20080;-68
2022/06/24 14:48:03;;;;;;;0.77;0.50;;;22.90;49.10;;;;;;6267726;28;20024;-68
2022/06/24 14:51:04;;;;;;;0.52;0.30;;;22.90;49.00;;;;;;6267230;28;20036;-65
2022/06/24 14:54:05;;;;;;;0.40;0.40;;;22.90;49.00;;;;;;6268044;28;20025;-65
2022/06/24 14:57:06;;;;;;;0.30;0.30;;;22.90;49.00;;;;;;6267930;28;20025;-68
2022/06/24 15:00:07;;;;;;;0.93;0.50;;;22.90;49.00;;;;;;6267174;28;20025;-68
2022/06/24 15:03:08;;;;;;;1.38;0.50;;;22.90;49.10;;;;;;6268169;28;20033;-67
2022/06/24 15:06:09;;;;;;;0.40;0.40;;;22.90;49.20;;;;;;6266115;28;20037;-68
2022/06/24 15:09:10;;;;;;;0.57;0.40;;;22.80;49.10;;;;;;6267751;28;20398;-67
2022/06/24 15:12:12;;;;;;;1.15;0.30;;;22.90;49.20;;;;;;6267787;28;20046;-67
2022/06/24 15:15:13;;;;;;;0.57;0.38;;;22.90;49.20;;;;;;6267623;28;20497;-68
2022/06/24 15:18:14;;;;;;;0.38;0.38;;;22.90;49.30;;;;;;6268126;28;20040;-68
2022/06/24 15:21:16;;;;;;;0.73;0.50;;;22.80;49.20;;;;;;6267490;28;20052;-70
2022/06/24 15:24:17;;;;;;;0.30;0.20;;;22.80;49.30;;;;;;6266318;28;20036;-69
2022/06/24 15:27:20;;;;;;;0.40;0.40;;;22.80;49.30;;;;;;6267073;28;20482;-68
2022/06/24 15:30:21;;;;;;;0.30;0.30;;;22.80;49.40;;;;;;6265612;28;20112;-68
2022/06/24 15:33:22;;;;;;;0.68;0.45;;;22.80;49.40;;;;;;6267379;28;20096;-67
2022/06/24 15:36:22;;;;;;;0.75;0.30;;;22.80;49.50;;;;;;6267358;28;20481;-68
2022/06/24 15:39:24;;;;;;;0.20;0.20;;;22.80;49.50;;;;;;6265560;28;20031;-68
2022/06/24 15:42:25;;;;;;;0.30;0.30;;;22.80;49.40;;;;;;6268042;28;20025;-69
2022/06/24 15:45:26;;;;;;;0.40;0.30;;;22.80;49.40;;;;;;6267584;28;20032;-69
2022/06/24 15:48:27;;;;;;;0.50;0.35;;;22.80;49.40;;;;;;6267402;28;20025;-68
2022/06/24 15:51:27;;;;;;;0.50;0.40;;;22.80;49.50;;;;;;6266974;28;20437;-68
2022/06/24 15:54:28;;;;;;;0.65;0.38;;;22.80;49.50;;;;;;6266916;28;20017;-69
2022/06/24 15:57:29;;;;;;;0.50;0.30;;;22.80;49.60;;;;;;6266963;28;20017;-69
2022/06/24 16:00:30;;;;;;;1.52;0.40;;;22.80;49.60;;;;;;6267010;28;20025;-70
2022/06/24 16:03:30;;;;;;;0.30;0.30;;;22.80;49.40;;;;;;6265717;28;20032;-68
2022/06/24 16:06:31;;;;;;;1.33;0.50;;;22.80;49.60;;;;;;6268003;28;20440;-69
2022/06/24 16:09:32;;;;;;;0.40;0.40;;;22.80;49.60;;;;;;6266838;28;20024;-69